createdAt,value
2018-05-19T00:00:35.916Z,30.10
2018-05-19T00:03:04.328Z,31.83
2018-05-19T00:05:32.730Z,34.05
2018-05-19T00:08:01.200Z,25.35
2018-05-19T00:10:29.592Z,30.98
2018-05-19T00:12:57.994Z,24.05
2018-05-19T00:15:26.422Z,27.40
2018-05-19T00:17:54.967Z,22.17
2018-05-19T00:20:23.344Z,32.25
2018-05-19T00:22:51.922Z,26.90
2018-05-19T00:25:20.302Z,23.60
2018-05-19T00:27:48.672Z,32.90
2018-05-19T00:30:17.079Z,27.50
2018-05-19T00:32:45.533Z,22.95
2018-05-19T00:35:14.008Z,18.05
2018-05-19T00:37:42.380Z,24.27
2018-05-19T00:40:10.856Z,22.62
2018-05-19T00:42:39.239Z,24.75
2018-05-19T00:45:07.617Z,18.87
2018-05-19T00:47:36.113Z,25.40
2018-05-19T00:50:04.493Z,26.80
2018-05-19T00:52:32.897Z,18.70
2018-05-19T00:55:05.961Z,20.55
2018-05-19T00:57:34.376Z,22.65
2018-05-19T01:00:02.747Z,24.10
2018-05-19T01:02:31.372Z,37.47
2018-05-19T01:04:59.748Z,23.80
2018-05-19T01:07:28.132Z,28.05
2018-05-19T01:09:56.560Z,40.28
2018-05-19T01:12:24.942Z,27.30
2018-05-19T01:14:53.348Z,21.73
2018-05-19T01:17:22.489Z,21.27
2018-05-19T01:19:51.088Z,23.08
2018-05-19T01:22:19.460Z,23.50
2018-05-19T01:24:47.836Z,35.17
2018-05-19T01:27:16.236Z,24.27
2018-05-19T01:29:44.621Z,23.98
2018-05-19T01:32:13.022Z,31.42
2018-05-19T01:34:42.168Z,30.50
2018-05-19T01:37:10.572Z,38.45
2018-05-19T01:39:38.949Z,28.23
2018-05-19T01:42:07.329Z,33.70
2018-05-19T01:44:35.731Z,36.00
2018-05-19T01:47:04.873Z,25.20
2018-05-19T01:49:33.291Z,26.48
2018-05-19T01:52:01.668Z,25.05
2018-05-19T01:54:30.311Z,26.20
2018-05-19T01:56:58.689Z,31.15
2018-05-19T01:59:27.060Z,28.77
2018-05-19T02:01:55.456Z,24.98
2018-05-19T02:04:23.833Z,26.30
2018-05-19T02:06:52.233Z,23.40
2018-05-19T02:09:20.621Z,22.02
2018-05-19T02:11:49.079Z,33.40
2018-05-19T02:14:17.461Z,24.90
2018-05-19T02:16:45.828Z,25.45
2018-05-19T02:19:14.225Z,32.58
2018-05-19T02:21:42.603Z,28.80
2018-05-19T02:24:11.012Z,22.00
2018-05-19T02:26:40.156Z,21.20
2018-05-19T02:29:08.764Z,27.02
2018-05-19T02:31:37.149Z,31.25
2018-05-19T02:34:05.528Z,36.65
2018-05-19T02:36:33.932Z,23.77
2018-05-19T02:39:03.081Z,23.90
2018-05-19T02:41:31.479Z,28.87
2018-05-19T02:43:59.858Z,20.55
2018-05-19T02:46:28.286Z,28.90
2018-05-19T02:48:56.799Z,21.58
2018-05-19T02:51:25.238Z,25.83
2018-05-19T02:53:53.637Z,23.58
2018-05-19T02:56:22.010Z,30.12
2018-05-19T02:58:50.409Z,25.88
2018-05-19T03:01:18.789Z,26.75
2018-05-19T03:03:47.472Z,22.75
2018-05-19T03:06:15.857Z,29.92
2018-05-19T03:08:44.228Z,24.83
2018-05-19T03:11:12.619Z,20.40
2018-05-19T03:13:40.989Z,24.87
2018-05-19T03:16:09.376Z,24.30
2018-05-19T03:18:37.757Z,21.10
2018-05-19T03:21:06.173Z,21.85
2018-05-19T03:23:35.308Z,25.90
2018-05-19T03:26:03.685Z,33.33
2018-05-19T03:28:32.807Z,29.50
2018-05-19T03:31:01.181Z,24.85
2018-05-19T03:33:29.579Z,25.67
2018-05-19T03:35:58.024Z,21.35
2018-05-19T03:38:27.163Z,24.52
2018-05-19T03:40:55.532Z,23.55
2018-05-19T03:43:23.905Z,22.85
2018-05-19T03:45:52.291Z,28.48
2018-05-19T03:48:20.658Z,20.30
2018-05-19T03:50:49.141Z,20.77
2018-05-19T03:53:17.512Z,22.90
2018-05-19T03:55:46.012Z,20.75
2018-05-19T04:01:40.468Z,19.98
2018-05-19T04:04:08.840Z,19.77
2018-05-19T04:06:37.251Z,27.62
2018-05-19T04:09:06.983Z,21.42
2018-05-19T04:11:35.362Z,19.37
2018-05-19T04:14:04.617Z,27.20
2018-05-19T04:16:32.936Z,15.98
2018-05-19T04:19:01.334Z,16.70
2018-05-19T04:21:30.533Z,33.70
2018-05-19T04:23:59.988Z,22.08
2018-05-19T04:26:28.352Z,23.80
2018-05-19T04:28:56.716Z,21.65
2018-05-19T04:31:25.104Z,23.77
2018-05-19T04:33:53.473Z,21.48
2018-05-19T04:36:21.867Z,24.12
2018-05-19T04:38:50.238Z,23.33
2018-05-19T04:41:18.932Z,20.00
2018-05-19T04:43:47.304Z,25.00
2018-05-19T04:46:15.681Z,28.90
2018-05-19T04:48:44.077Z,26.85
2018-05-19T04:51:12.456Z,27.08
2018-05-19T04:53:40.881Z,25.85
2018-05-19T04:56:10.022Z,24.42
2018-05-19T04:58:38.628Z,33.08
2018-05-19T05:01:07.006Z,33.20
2018-05-19T05:03:35.379Z,23.90
2018-05-19T05:06:03.784Z,18.75
2018-05-19T05:08:32.173Z,23.48
2018-05-19T05:11:00.572Z,28.20
2018-05-19T05:13:28.944Z,28.00
2018-05-19T05:15:58.385Z,23.87
2018-05-19T05:18:26.785Z,28.65
2018-05-19T05:20:55.165Z,27.62
2018-05-19T05:23:23.575Z,26.65
2018-05-19T05:25:52.721Z,20.67
2018-05-19T05:28:21.116Z,19.65
2018-05-19T05:30:49.497Z,27.62
2018-05-19T05:33:18.165Z,22.98
2018-05-19T05:35:46.565Z,40.47
2018-05-19T05:38:14.954Z,20.92
2018-05-19T05:40:43.357Z,24.40
2018-05-19T05:43:12.498Z,18.25
2018-05-19T05:45:40.909Z,21.52
2018-05-19T05:48:09.288Z,25.25
2018-05-19T05:50:38.748Z,25.65
2018-05-19T05:53:07.134Z,22.83
2018-05-19T05:55:35.518Z,25.73
2018-05-19T05:58:03.921Z,18.45
2018-05-19T06:00:32.300Z,31.00
2018-05-19T06:03:00.709Z,23.40
2018-05-19T06:05:29.852Z,19.62
2018-05-19T06:07:58.293Z,30.48
2018-05-19T06:10:26.668Z,27.55
2018-05-19T06:12:55.804Z,19.48
2018-05-19T06:15:24.221Z,40.40
2018-05-19T06:17:52.598Z,20.23
2018-05-19T06:20:20.994Z,25.40
2018-05-19T06:22:49.389Z,22.13
2018-05-19T06:25:18.690Z,27.23
2018-05-19T06:27:47.069Z,22.23
2018-05-19T06:30:15.465Z,33.70
2018-05-19T06:32:43.866Z,22.75
2018-05-19T06:35:12.241Z,31.02
2018-05-19T06:37:40.673Z,33.92
2018-05-19T06:40:09.829Z,24.60
2018-05-19T06:42:39.241Z,20.37
2018-05-19T06:45:07.633Z,20.25
2018-05-19T06:47:36.772Z,33.90
2018-05-19T06:50:05.192Z,19.10
2018-05-19T06:52:33.568Z,24.63
2018-05-19T06:55:02.003Z,37.13
2018-05-19T06:57:30.384Z,24.80
2018-05-19T06:59:58.821Z,26.37
2018-05-19T07:02:27.993Z,22.45
2018-05-19T07:04:56.378Z,26.90
2018-05-19T07:07:24.799Z,24.30
2018-05-19T07:09:53.179Z,22.70
2018-05-19T07:12:21.578Z,28.65
2018-05-19T07:14:49.960Z,35.15
2018-05-19T07:17:18.393Z,33.77
2018-05-19T07:19:46.807Z,26.37
2018-05-19T07:22:15.180Z,22.27
2018-05-19T07:24:43.581Z,25.37
2018-05-19T07:27:11.965Z,24.10
2018-05-19T07:29:40.450Z,35.58
2018-05-19T07:32:08.832Z,26.13
2018-05-19T07:34:37.253Z,26.07
2018-05-19T07:37:06.398Z,27.00
2018-05-19T07:39:34.844Z,24.83
2018-05-19T07:42:03.296Z,17.60
2018-05-19T07:44:31.655Z,22.73
2018-05-19T07:47:00.065Z,20.03
2018-05-19T07:49:29.213Z,22.93
2018-05-19T07:51:57.788Z,21.70
2018-05-19T07:54:26.169Z,48.83
2018-05-19T07:56:54.550Z,19.20
2018-05-19T07:59:23.538Z,18.00
2018-05-19T08:01:51.944Z,35.57
2018-05-19T08:04:20.534Z,30.07
2018-05-19T08:06:48.870Z,32.27
2018-05-19T08:09:17.467Z,23.00
2018-05-19T08:11:45.996Z,25.97
2018-05-19T08:14:15.141Z,25.00
2018-05-19T08:16:43.614Z,23.10
2018-05-19T08:19:12.066Z,26.50
2018-05-19T08:21:41.237Z,28.07
2018-05-19T08:24:09.653Z,24.70
2018-05-19T08:26:38.465Z,42.53
2018-05-19T08:29:07.054Z,26.57
2018-05-19T08:31:35.783Z,25.87
2018-05-19T08:34:05.201Z,26.67
2018-05-19T08:36:33.594Z,24.73
2018-05-19T08:39:02.298Z,24.23
2018-05-19T08:41:30.672Z,19.80
2018-05-19T08:43:59.795Z,26.80
2018-05-19T08:46:28.936Z,22.27
2018-05-19T08:49:06.220Z,31.90
2018-05-19T08:51:35.419Z,20.30
2018-05-19T08:54:04.591Z,29.50
2018-05-19T08:56:32.989Z,25.77
2018-05-19T08:59:01.423Z,20.20
2018-05-19T09:01:29.898Z,32.20
2018-05-19T09:03:58.277Z,30.63
2018-05-19T09:06:26.673Z,25.17
2018-05-19T09:08:55.052Z,25.90
2018-05-19T09:11:23.809Z,27.57
2018-05-19T09:13:52.185Z,28.90
2018-05-19T09:16:20.557Z,24.17
2018-05-19T09:18:48.960Z,22.40
2018-05-19T09:21:18.575Z,22.37
2018-05-19T09:23:48.580Z,25.03
2018-05-19T09:26:19.169Z,20.30
2018-05-19T09:28:48.581Z,26.37
2018-05-19T09:31:21.982Z,24.13
2018-05-19T09:33:55.277Z,16.07
2018-05-19T09:36:27.493Z,23.90
2018-05-19T09:38:57.561Z,24.53
2018-05-19T09:41:26.816Z,23.13
2018-05-19T09:43:55.333Z,27.50
2018-05-19T09:46:24.160Z,30.53
2018-05-19T09:48:53.892Z,23.83
2018-05-19T09:51:25.545Z,20.83
2018-05-19T09:53:55.577Z,19.33
2018-05-19T09:56:26.070Z,22.33
2018-05-19T09:58:55.839Z,27.10
2018-05-19T10:01:24.690Z,29.20
2018-05-19T10:03:55.982Z,25.83
2018-05-19T10:06:24.777Z,19.33
2018-05-19T10:08:53.258Z,19.97
2018-05-19T10:11:21.575Z,15.73
2018-05-19T10:13:50.957Z,13.27
2018-05-19T10:16:19.343Z,15.50
2018-05-19T10:18:47.707Z,20.00
2018-05-19T10:21:16.110Z,11.83
2018-05-19T10:23:44.488Z,16.30
2018-05-19T10:26:15.473Z,18.60
2018-05-19T10:28:44.613Z,23.00
2018-05-19T10:31:13.398Z,18.20
2018-05-19T10:33:41.854Z,20.13
2018-05-19T10:36:10.238Z,13.90
2018-05-19T10:38:38.686Z,15.93
2018-05-19T10:41:07.884Z,20.63
2018-05-19T10:43:36.299Z,12.60
2018-05-19T10:46:04.679Z,14.07
2018-05-19T10:48:33.208Z,14.47
2018-05-19T10:51:02.412Z,25.50
2018-05-19T10:53:30.856Z,13.23
2018-05-19T10:55:59.303Z,10.97
2018-05-19T10:58:27.767Z,11.70
2018-05-19T11:00:56.929Z,13.27
2018-05-19T11:03:25.313Z,14.70
2018-05-19T11:05:53.737Z,13.63
2018-05-19T11:08:22.268Z,13.70
2018-05-19T11:10:50.739Z,18.37
2018-05-19T11:13:19.576Z,11.73
2018-05-19T11:15:47.965Z,12.00
2018-05-19T11:18:16.357Z,13.27
2018-05-19T11:20:44.732Z,12.40
2018-05-19T11:23:13.529Z,10.90
2018-05-19T11:25:42.025Z,14.00
2018-05-19T11:28:10.335Z,10.83
2018-05-19T11:30:38.752Z,11.83
2018-05-19T11:33:07.137Z,7.10
2018-05-19T11:35:35.551Z,16.67
2018-05-19T11:38:04.030Z,14.47
2018-05-19T11:40:32.479Z,12.70
2018-05-19T11:43:20.601Z,8.37
2018-05-19T11:45:49.037Z,13.00
2018-05-19T11:48:17.457Z,13.17
2018-05-19T11:50:46.066Z,9.50
2018-05-19T11:53:15.200Z,7.63
2018-05-19T11:55:43.692Z,17.87
2018-05-19T11:58:12.091Z,8.60
2018-05-19T12:00:41.325Z,14.87
2018-05-19T12:03:09.771Z,11.53
2018-05-19T12:05:39.076Z,9.40
2018-05-19T12:08:07.609Z,9.13
2018-05-19T12:10:36.032Z,7.27
2018-05-19T12:13:05.177Z,9.57
2018-05-19T12:15:33.643Z,12.30
2018-05-19T12:18:02.056Z,10.93
2018-05-19T12:20:30.924Z,7.83
2018-05-19T12:22:59.324Z,12.27
2018-05-19T12:25:28.010Z,11.87
2018-05-19T12:27:56.413Z,11.67
2018-05-19T12:30:25.576Z,7.73
2018-05-19T12:32:54.012Z,12.77
2018-05-19T12:35:22.467Z,9.37
2018-05-19T12:37:51.864Z,13.90
2018-05-19T12:40:21.072Z,13.07
2018-05-19T12:42:50.262Z,9.33
2018-05-19T12:45:19.490Z,14.03
2018-05-19T12:47:47.864Z,12.00
2018-05-19T12:50:16.482Z,19.80
2018-05-19T12:52:44.885Z,11.07
2018-05-19T12:55:13.570Z,8.20
2018-05-19T12:57:41.981Z,13.40
2018-05-19T13:00:11.728Z,18.63
2018-05-19T13:02:40.137Z,10.23
2018-05-19T13:05:08.581Z,18.03
2018-05-19T13:07:36.985Z,46.53
2018-05-19T13:10:05.370Z,9.37
2018-05-19T13:12:34.481Z,13.20
2018-05-19T13:15:03.652Z,8.97
2018-05-19T13:17:32.081Z,7.40
2018-05-19T13:20:01.282Z,16.23
2018-05-19T13:22:29.695Z,13.03
2018-05-19T13:24:58.133Z,13.50
2018-05-19T13:27:27.316Z,13.90
2018-05-19T13:29:56.731Z,9.97
2018-05-19T13:32:25.953Z,9.77
2018-05-19T13:34:54.360Z,8.37
2018-05-19T13:37:22.821Z,13.97
2018-05-19T13:39:51.196Z,13.20
2018-05-19T13:42:19.650Z,14.33
2018-05-19T13:44:48.173Z,12.93
2018-05-19T13:47:17.062Z,16.90
2018-05-19T13:49:46.570Z,15.90
2018-05-19T13:52:15.239Z,12.93
2018-05-19T13:54:45.689Z,13.10
2018-05-19T13:57:14.132Z,18.90
2018-05-19T13:59:42.533Z,13.90
2018-05-19T14:02:11.064Z,14.40
2018-05-19T14:04:40.225Z,17.53
2018-05-19T14:07:08.624Z,15.73
2018-05-19T14:09:37.341Z,19.60
2018-05-19T14:12:07.467Z,15.00
2018-05-19T14:14:35.873Z,14.10
2018-05-19T14:17:04.308Z,11.20
2018-05-19T14:19:33.542Z,11.77
2018-05-19T14:22:02.006Z,16.67
2018-05-19T14:24:30.385Z,21.30
2018-05-19T14:26:59.202Z,15.27
2018-05-19T14:29:28.265Z,15.20
2018-05-19T14:31:56.640Z,20.20
2018-05-19T14:34:25.035Z,12.23
2018-05-19T14:36:53.413Z,31.97
2018-05-19T14:39:22.244Z,13.43
2018-05-19T14:41:50.867Z,17.63
2018-05-19T14:44:19.490Z,11.20
2018-05-19T14:46:47.934Z,13.90
2018-05-19T14:49:16.673Z,13.57
2018-05-19T14:51:45.170Z,23.10
2018-05-19T14:54:13.573Z,18.23
2018-05-19T14:56:42.793Z,16.20
2018-05-19T14:59:12.837Z,10.50
2018-05-19T15:01:41.346Z,10.77
2018-05-19T15:04:09.753Z,13.60
2018-05-19T15:06:38.136Z,12.17
2018-05-19T15:09:06.536Z,14.43
2018-05-19T15:11:34.937Z,13.40
2018-05-19T15:14:03.494Z,10.33
2018-05-19T15:16:31.903Z,10.27
2018-05-19T15:19:00.565Z,13.90
2018-05-19T15:21:29.006Z,10.37
2018-05-19T15:23:57.419Z,13.37
2018-05-19T15:26:25.848Z,21.10
2018-05-19T15:28:59.519Z,13.30
2018-05-19T15:31:28.919Z,12.83
2018-05-19T15:33:57.836Z,10.97
2018-05-19T15:36:27.152Z,9.23
2018-05-19T15:38:57.174Z,11.17
2018-05-19T15:41:26.386Z,12.20
2018-05-19T15:43:54.905Z,17.37
2018-05-19T15:46:23.872Z,10.87
2018-05-19T15:48:52.303Z,11.10
2018-05-19T15:51:21.062Z,12.90
2018-05-19T15:53:49.582Z,8.27
2018-05-19T15:56:18.880Z,10.70
2018-05-19T15:58:48.403Z,10.40
2018-05-19T16:01:17.530Z,10.20
2018-05-19T16:03:46.280Z,6.57
2018-05-19T16:06:15.956Z,7.30
2018-05-19T16:08:45.003Z,6.80
2018-05-19T16:11:13.800Z,7.33
2018-05-19T16:13:42.493Z,9.90
2018-05-19T16:16:10.966Z,5.70
2018-05-19T16:18:39.380Z,6.30
2018-05-19T16:21:07.769Z,7.90
2018-05-19T16:23:37.616Z,7.23
2018-05-19T16:26:06.244Z,7.43
2018-05-19T16:28:35.238Z,6.30
2018-05-19T16:31:04.160Z,8.90
2018-05-19T16:33:34.580Z,11.47
2018-05-19T16:36:04.249Z,15.23
2018-05-19T16:38:33.094Z,14.43
2018-05-19T16:41:02.035Z,11.73
2018-05-19T16:43:31.040Z,10.60
2018-05-19T16:46:00.043Z,9.10
2018-05-19T16:48:29.805Z,12.02
2018-05-19T16:50:58.769Z,6.85
2018-05-19T16:53:27.197Z,9.38
2018-05-19T16:55:55.661Z,9.85
2018-05-19T16:58:24.244Z,17.92
2018-05-19T17:00:53.065Z,12.98
2018-05-19T17:03:22.039Z,9.95
2018-05-19T17:05:54.226Z,8.50
2018-05-19T17:08:25.536Z,11.07
2018-05-19T17:10:55.365Z,12.95
2018-05-19T17:13:26.756Z,12.55
2018-05-19T17:15:56.364Z,16.90
2018-05-19T17:18:25.231Z,11.82
2018-05-19T17:20:55.374Z,7.60
2018-05-19T17:23:26.396Z,11.05
2018-05-19T17:25:56.335Z,7.00
2018-05-19T17:28:25.296Z,9.43
2018-05-19T17:30:54.155Z,15.60
2018-05-19T17:33:23.072Z,14.73
2018-05-19T17:35:51.866Z,10.60
2018-05-19T17:38:20.592Z,6.95
2018-05-19T17:40:49.005Z,13.65
2018-05-19T17:43:17.515Z,14.20
2018-05-19T17:45:47.123Z,9.40
2018-05-19T17:48:15.654Z,9.48
2018-05-19T17:50:45.210Z,14.10
2018-05-19T17:53:14.809Z,8.38
2018-05-19T17:55:46.891Z,12.02
2018-05-19T17:58:17.129Z,26.23
2018-05-19T18:00:48.257Z,17.70
2018-05-19T18:03:16.925Z,8.70
2018-05-19T18:05:47.762Z,7.53
2018-05-19T18:08:17.027Z,15.05
2018-05-19T18:10:46.791Z,9.40
2018-05-19T18:13:15.958Z,15.43
2018-05-19T18:15:45.202Z,10.77
2018-05-19T18:18:14.468Z,16.27
2018-05-19T18:20:43.759Z,9.85
2018-05-19T18:23:12.179Z,16.10
2018-05-19T18:25:40.553Z,10.07
2018-05-19T18:28:08.963Z,11.23
2018-05-19T18:30:37.359Z,13.07
2018-05-19T18:33:06.086Z,22.15
2018-05-19T18:35:34.569Z,13.40
2018-05-19T18:38:03.133Z,13.68
2018-05-19T18:40:32.536Z,11.70
2018-05-19T18:43:00.965Z,18.12
2018-05-19T18:45:30.358Z,12.85
2018-05-19T18:47:59.590Z,20.85
2018-05-19T18:50:28.953Z,13.30
2018-05-19T18:53:01.390Z,11.45
2018-05-19T18:55:30.178Z,14.87
2018-05-19T18:57:59.024Z,28.95
2018-05-19T19:00:27.651Z,13.68
2018-05-19T19:02:57.673Z,17.10
2018-05-19T19:05:26.051Z,17.17
2018-05-19T19:07:54.596Z,17.83
2018-05-19T19:10:24.145Z,18.75
2018-05-19T19:12:54.395Z,18.98
2018-05-19T19:15:24.428Z,15.20
2018-05-19T19:17:53.904Z,19.45
2018-05-19T19:20:23.484Z,19.55
2018-05-19T19:22:52.131Z,18.48
2018-05-19T19:25:20.623Z,19.10
2018-05-19T19:27:49.438Z,22.45
2018-05-19T19:30:19.616Z,19.27
2018-05-19T19:32:48.647Z,19.08
2018-05-19T19:35:17.324Z,20.52
2018-05-19T19:37:45.729Z,17.95
2018-05-19T19:40:14.109Z,20.42
2018-05-19T19:42:43.115Z,17.87
2018-05-19T19:45:12.673Z,22.10
2018-05-19T19:47:41.180Z,18.52
2018-05-19T19:50:09.728Z,26.10
2018-05-19T19:52:38.234Z,20.50
2018-05-19T19:55:06.687Z,21.87
2018-05-19T19:57:35.116Z,19.85
2018-05-19T20:00:04.241Z,23.02
2018-05-19T20:02:32.683Z,21.40
2018-05-19T20:05:01.360Z,17.17
2018-05-19T20:07:30.849Z,20.00
2018-05-19T20:10:00.315Z,15.65
2018-05-19T20:12:29.713Z,18.33
2018-05-19T20:14:58.929Z,19.27
2018-05-19T20:17:28.059Z,19.02
2018-05-19T20:19:56.525Z,21.20
2018-05-19T20:22:24.964Z,15.65
2018-05-19T20:24:53.396Z,20.05
2018-05-19T20:27:22.925Z,13.50
2018-05-19T20:29:52.034Z,16.95
2018-05-19T20:32:20.509Z,14.18
2018-05-19T20:34:49.011Z,18.20
2018-05-19T20:37:18.346Z,15.30
2018-05-19T20:39:46.910Z,22.52
2018-05-19T20:42:15.328Z,25.40
2018-05-19T20:44:44.217Z,14.43
2018-05-19T20:47:12.646Z,19.33
2018-05-19T20:49:41.800Z,23.00
2018-05-19T20:52:10.226Z,18.37
2018-05-19T20:54:39.421Z,18.08
2018-05-19T20:57:08.646Z,16.90
2018-05-19T20:59:37.025Z,15.55
2018-05-19T21:02:05.517Z,18.75
2018-05-19T21:04:33.909Z,13.18
2018-05-19T21:07:02.700Z,12.80
2018-05-19T21:09:31.229Z,15.45
2018-05-19T21:12:00.628Z,16.48
2018-05-19T21:14:29.958Z,18.15
2018-05-19T21:16:58.647Z,20.02
2018-05-19T21:19:27.567Z,21.17
2018-05-19T21:21:56.522Z,18.02
2018-05-19T21:24:25.941Z,21.37
2018-05-19T21:27:06.977Z,21.62
2018-05-19T21:29:38.216Z,17.00
2018-05-19T21:32:08.942Z,21.15
2018-05-19T21:34:37.518Z,20.50
2018-05-19T21:37:06.437Z,20.40
2018-05-19T21:39:35.762Z,30.12
2018-05-19T21:42:04.189Z,19.10
2018-05-19T21:44:32.603Z,19.83
2018-05-19T21:47:00.985Z,25.02
2018-05-19T21:49:30.101Z,17.37
2018-05-19T21:51:58.632Z,19.25
2018-05-19T21:54:27.790Z,18.50
2018-05-19T21:56:56.267Z,18.30
2018-05-19T21:59:24.754Z,18.98
2018-05-19T22:01:53.194Z,18.80
2018-05-19T22:04:21.755Z,24.12
2018-05-19T22:06:50.548Z,20.55
2018-05-19T22:09:20.145Z,17.05
2018-05-19T22:11:48.527Z,17.37
2018-05-19T22:14:17.176Z,14.77
2018-05-19T22:16:46.581Z,13.70
2018-05-19T22:19:15.056Z,14.55
2018-05-19T22:21:43.473Z,14.60
2018-05-19T22:24:13.209Z,13.95
2018-05-19T22:26:41.589Z,11.75
2018-05-19T22:29:09.989Z,10.55
2018-05-19T22:31:38.708Z,17.17
2018-05-19T22:34:07.089Z,9.55
2018-05-19T22:36:35.489Z,10.15
2018-05-19T22:39:04.648Z,11.30
2018-05-19T22:41:33.381Z,9.77
2018-05-19T22:44:02.537Z,10.15
2018-05-19T22:46:30.969Z,12.80
2018-05-19T22:48:59.341Z,9.40
2018-05-19T22:51:28.484Z,10.48
2018-05-19T22:53:56.957Z,11.48
2018-05-19T22:56:25.328Z,13.70
2018-05-19T22:58:53.823Z,11.05
2018-05-19T23:01:23.077Z,10.52
2018-05-19T23:03:52.277Z,11.52
2018-05-19T23:06:20.657Z,11.48
2018-05-19T23:08:49.037Z,14.82
2018-05-19T23:11:17.624Z,10.25
2018-05-19T23:13:46.948Z,12.95
2018-05-19T23:16:15.344Z,12.65
2018-05-19T23:18:43.720Z,8.57
2018-05-19T23:21:12.154Z,9.68
2018-05-19T23:23:41.702Z,8.52
2018-05-19T23:26:10.078Z,7.28
2018-05-19T23:28:38.476Z,8.00
2018-05-19T23:31:06.852Z,7.82
2018-05-19T23:33:35.253Z,8.65
2018-05-19T23:36:03.621Z,9.00
2018-05-19T23:38:32.813Z,9.05
2018-05-19T23:41:01.188Z,9.15
2018-05-19T23:43:29.581Z,11.75
2018-05-19T23:45:58.465Z,14.23
2018-05-19T23:48:26.837Z,11.30
2018-05-19T23:50:55.396Z,12.05
2018-05-19T23:53:23.933Z,9.98
2018-05-19T23:55:53.232Z,10.40
2018-05-19T23:58:22.987Z,7.40
